CheckWX is a tool to help pilots better visualize weather data.  It is not intended as a substitute for an official pre-flight weather briefing.

12:17:41 UTC

KEWN METAR
Coastal Carolina Regional Airport
New Bern, North Carolina, USA
Current

24 mins ago

KEWN 221154Z 05011KT 10SM BKN012 OVC038 12/10 A3025 RMK AO2 SLP244 60003 70003 T01170100 10144 20117 53021
Observed
Feb-22 @ 11:54 UTC
Wind
  • 050° at 11 KTS
Visibility
10 SM
Flight Rules
MVFR
Cloud Levels
  • Broken at 1,200' AGL
  • Overcast at 3,800' AGL
Temperature
12°C / 54°F
Dewpoint
10°C / 50°F
Humidity
88%
Altimeter
30.25" Hg
Pressure
1024.4 hPa
Previous

47 mins ago

KEWN 221131Z 06009KT 10SM OVC010 12/11 A3023 RMK AO2 CIG 008V014 T01220111
Observed
Feb-22 @ 11:31 UTC
Wind
  • 060° at 9 KTS
Visibility
10 SM
Flight Rules
MVFR
Cloud Levels
  • Overcast at 1,000' AGL
Temperature
12°C / 54°F
Dewpoint
11°C / 52°F
Humidity
94%
Altimeter
30.23" Hg
Pressure
1023.72 hPa
Previous

1 hour ago

KEWN 221054Z 05010KT 8SM BKN008 BKN012 OVC038 13/12 A3022 RMK AO2 CIG 006V010 SLP233 T01280117
Observed
Feb-22 @ 10:54 UTC
Wind
  • 050° at 10 KTS
Visibility
8 SM
Flight Rules
IFR
Cloud Levels
  • Broken at 800' AGL
  • Broken at 1,200' AGL
  • Overcast at 3,800' AGL
Temperature
13°C / 55°F
Dewpoint
12°C / 54°F
Humidity
94%
Altimeter
30.22" Hg
Pressure
1023.3 hPa